createdAt,value
2023-02-01T00:00:24.149Z,26.42
2023-02-01T00:01:26.928Z,31.98
2023-02-01T00:02:29.564Z,27.26
2023-02-01T00:03:32.431Z,26.04
2023-02-01T00:04:35.298Z,31.08
2023-02-01T00:05:37.877Z,30.35
2023-02-01T00:06:40.942Z,26.45
2023-02-01T00:07:43.495Z,27.90
2023-02-01T00:08:46.065Z,27.68
2023-02-01T00:09:48.621Z,29.33
2023-02-01T00:10:51.582Z,35.59
2023-02-01T00:11:54.140Z,28.69
2023-02-01T00:12:56.710Z,25.67
2023-02-01T00:13:59.268Z,26.61
2023-02-01T00:15:01.832Z,27.39
2023-02-01T00:16:04.555Z,31.59
2023-02-01T00:17:07.264Z,30.51
2023-02-01T00:18:09.832Z,30.58
2023-02-01T00:19:12.389Z,32.83
2023-02-01T00:20:15.676Z,28.73
2023-02-01T00:21:18.214Z,27.17
2023-02-01T00:22:20.825Z,25.41
2023-02-01T00:23:23.380Z,28.37
2023-02-01T00:24:25.959Z,25.09
2023-02-01T00:25:28.532Z,26.77
2023-02-01T00:26:31.649Z,26.09
2023-02-01T00:27:34.357Z,26.48
2023-02-01T00:28:36.920Z,26.44
2023-02-01T00:29:39.476Z,24.18
2023-02-01T00:30:42.359Z,29.40
2023-02-01T00:31:44.939Z,22.87
2023-02-01T00:32:47.466Z,26.65
2023-02-01T00:33:50.035Z,21.49
2023-02-01T00:34:52.587Z,24.93
2023-02-01T00:35:55.135Z,24.12
2023-02-01T00:36:58.044Z,24.69
2023-02-01T00:38:00.604Z,29.00
2023-02-01T00:39:03.162Z,27.19
2023-02-01T00:40:06.032Z,22.86
2023-02-01T00:41:08.637Z,22.66
2023-02-01T00:42:11.252Z,23.03
2023-02-01T00:43:13.754Z,21.98
2023-02-01T00:44:16.316Z,25.70
2023-02-01T00:45:18.896Z,25.26
2023-02-01T00:46:21.773Z,24.86
2023-02-01T00:47:24.355Z,27.59
2023-02-01T00:48:26.908Z,25.75
2023-02-01T00:49:29.486Z,23.59
2023-02-01T00:50:32.153Z,19.99
2023-02-01T00:51:34.695Z,27.17
2023-02-01T00:52:37.321Z,27.27
2023-02-01T00:53:39.888Z,23.15
2023-02-01T00:54:42.449Z,23.47
2023-02-01T00:55:45.000Z,25.02
2023-02-01T00:56:47.764Z,26.41
2023-02-01T00:57:50.367Z,23.67
2023-02-01T00:58:52.939Z,25.89
2023-02-01T00:59:55.497Z,23.40
2023-02-01T01:00:58.237Z,25.20
2023-02-01T01:02:00.893Z,27.37
2023-02-01T01:03:03.464Z,25.91
2023-02-01T01:04:06.021Z,25.13
2023-02-01T01:05:08.574Z,25.67
2023-02-01T01:06:11.237Z,21.96
2023-02-01T01:07:13.792Z,23.81
2023-02-01T01:08:16.388Z,21.76
2023-02-01T01:09:18.959Z,23.47
2023-02-01T01:10:22.228Z,22.93
2023-02-01T01:11:25.213Z,24.67
2023-02-01T01:12:27.752Z,25.89
2023-02-01T01:13:30.343Z,20.81
2023-02-01T01:14:32.927Z,23.69
2023-02-01T01:15:35.465Z,24.69
2023-02-01T01:16:38.229Z,22.48
2023-02-01T01:17:40.789Z,24.19
2023-02-01T01:18:43.403Z,22.85
2023-02-01T01:19:45.967Z,24.84
2023-02-01T01:20:48.939Z,23.18
2023-02-01T01:21:51.484Z,22.75
2023-02-01T01:22:54.043Z,27.07
2023-02-01T01:23:56.614Z,24.05
2023-02-01T01:24:59.163Z,21.18
2023-02-01T01:26:01.717Z,21.79
2023-02-01T01:27:04.291Z,21.50
2023-02-01T01:28:06.855Z,24.55
2023-02-01T01:29:09.399Z,21.03
2023-02-01T01:30:12.581Z,22.93
2023-02-01T01:31:15.235Z,24.63
2023-02-01T01:32:17.904Z,24.82
2023-02-01T01:33:20.487Z,24.61
2023-02-01T01:34:23.062Z,24.17
2023-02-01T01:35:25.655Z,23.40
2023-02-01T01:36:28.315Z,27.29
2023-02-01T01:37:30.876Z,29.71
2023-02-01T01:38:33.431Z,20.27
2023-02-01T01:39:35.991Z,24.23
2023-02-01T01:40:38.656Z,21.57
2023-02-01T01:41:41.223Z,25.06
2023-02-01T01:42:44.103Z,22.40
2023-02-01T01:43:46.663Z,23.23
2023-02-01T01:44:49.241Z,24.32
2023-02-01T01:45:51.812Z,26.57
2023-02-01T01:46:54.669Z,24.76
2023-02-01T01:47:57.212Z,24.91
2023-02-01T01:48:59.932Z,23.08
2023-02-01T01:50:02.725Z,24.73
2023-02-01T01:51:05.261Z,24.87
2023-02-01T01:52:07.852Z,25.53
2023-02-01T01:53:10.411Z,25.83
2023-02-01T01:54:12.980Z,23.78
2023-02-01T01:55:15.541Z,28.72
2023-02-01T01:56:19.008Z,25.41
2023-02-01T01:57:21.574Z,28.23
2023-02-01T01:58:24.132Z,22.73
2023-02-01T01:59:26.716Z,22.86
2023-02-01T02:00:29.724Z,20.39
2023-02-01T02:01:32.363Z,23.37
2023-02-01T02:02:34.926Z,21.11
2023-02-01T02:03:37.479Z,22.22
2023-02-01T02:04:40.041Z,25.69
2023-02-01T02:05:42.622Z,24.87
2023-02-01T02:06:45.360Z,24.94
2023-02-01T02:07:47.926Z,23.73
2023-02-01T02:08:50.460Z,24.93
2023-02-01T02:10:00.503Z,25.63
2023-02-01T02:10:57.694Z,21.36
2023-02-01T02:12:00.266Z,25.19
2023-02-01T02:13:02.827Z,24.20
2023-02-01T02:14:05.382Z,23.64
2023-02-01T02:15:07.943Z,23.27
2023-02-01T02:16:11.036Z,22.09
2023-02-01T02:17:13.649Z,22.19
2023-02-01T02:18:16.205Z,24.49
2023-02-01T02:19:18.759Z,22.06
2023-02-01T02:20:21.963Z,23.24
2023-02-01T02:21:24.792Z,22.24
2023-02-01T02:22:27.350Z,23.64
2023-02-01T02:23:29.906Z,26.37
2023-02-01T02:24:32.469Z,19.25
2023-02-01T02:25:34.935Z,22.08
2023-02-01T02:26:37.706Z,23.21
2023-02-01T02:27:40.336Z,20.73
2023-02-01T02:28:42.896Z,22.22
2023-02-01T02:29:45.362Z,21.38
2023-02-01T02:30:48.376Z,22.39
2023-02-01T02:31:51.003Z,21.21
2023-02-01T02:32:53.539Z,22.09
2023-02-01T02:33:56.102Z,20.10
2023-02-01T02:34:58.672Z,25.58
2023-02-01T02:36:01.230Z,20.69
2023-02-01T02:37:03.789Z,20.79
2023-02-01T02:38:06.347Z,27.65
2023-02-01T02:39:09.143Z,23.34
2023-02-01T02:40:12.010Z,22.22
2023-02-01T02:41:14.561Z,24.38
2023-02-01T02:42:17.124Z,25.63
2023-02-01T02:43:19.668Z,20.69
2023-02-01T02:44:25.281Z,23.92
2023-02-01T02:45:27.889Z,18.63
2023-02-01T02:46:30.834Z,21.13
2023-02-01T02:47:33.426Z,18.69
2023-02-01T02:48:35.993Z,22.20
2023-02-01T02:49:38.616Z,19.53
2023-02-01T02:50:41.527Z,20.68
2023-02-01T02:51:44.087Z,22.17
2023-02-01T02:52:46.660Z,24.77
2023-02-01T02:53:49.209Z,23.42
2023-02-01T02:54:51.811Z,21.43
2023-02-01T02:55:54.356Z,24.94
2023-02-01T02:56:57.219Z,18.45
2023-02-01T02:57:59.781Z,28.72
2023-02-01T02:59:02.344Z,24.39
2023-02-01T03:00:05.242Z,23.09
2023-02-01T03:01:07.816Z,22.46
2023-02-01T03:02:10.368Z,21.09
2023-02-01T03:03:12.928Z,23.51
2023-02-01T03:04:15.512Z,21.76
2023-02-01T03:05:18.133Z,21.86
2023-02-01T03:06:20.892Z,23.51
2023-02-01T03:07:23.663Z,21.71
2023-02-01T03:08:26.218Z,22.10
2023-02-01T03:09:28.771Z,21.71
2023-02-01T03:10:31.657Z,22.62
2023-02-01T03:11:34.111Z,22.61
2023-02-01T03:12:36.664Z,24.67
2023-02-01T03:13:39.215Z,21.73
2023-02-01T03:14:41.772Z,21.13
2023-02-01T03:15:44.367Z,23.12
2023-02-01T03:16:47.400Z,24.52
2023-02-01T03:17:50.004Z,22.15
2023-02-01T03:18:52.557Z,25.99
2023-02-01T03:19:55.117Z,23.45
2023-02-01T03:20:57.999Z,21.96
2023-02-01T03:22:00.567Z,18.07
2023-02-01T03:23:03.132Z,24.29
2023-02-01T03:24:05.587Z,22.07
2023-02-01T03:25:08.142Z,21.07
2023-02-01T03:26:11.063Z,25.24
2023-02-01T03:27:13.616Z,19.70
2023-02-01T03:28:16.173Z,20.83
2023-02-01T03:29:18.723Z,22.78
2023-02-01T03:30:22.152Z,23.93
2023-02-01T03:31:25.003Z,22.93
2023-02-01T03:32:27.626Z,21.63
2023-02-01T03:33:30.185Z,18.46
2023-02-01T03:34:32.766Z,21.95
2023-02-01T03:35:35.317Z,21.81
2023-02-01T03:36:37.973Z,23.98
2023-02-01T03:37:40.527Z,25.39
2023-02-01T03:38:42.986Z,20.92
2023-02-01T03:39:45.553Z,22.83
2023-02-01T03:40:48.411Z,24.54
2023-02-01T03:41:50.963Z,20.18
2023-02-01T03:43:11.556Z,21.30
2023-02-01T03:44:14.110Z,19.58
2023-02-01T03:45:16.662Z,22.79
2023-02-01T03:46:19.529Z,21.52
2023-02-01T03:47:22.089Z,21.63
2023-02-01T03:48:24.645Z,23.39
2023-02-01T03:49:27.191Z,21.85
2023-02-01T03:50:29.974Z,19.82
2023-02-01T03:51:32.553Z,20.37
2023-02-01T03:52:35.105Z,23.71
2023-02-01T03:53:37.665Z,20.50
2023-02-01T03:54:40.215Z,22.11
2023-02-01T03:55:42.773Z,20.51
2023-02-01T03:56:45.631Z,24.04
2023-02-01T03:57:48.217Z,21.29
2023-02-01T03:58:50.871Z,21.04
2023-02-01T03:59:53.422Z,20.39
2023-02-01T04:00:56.628Z,18.86
2023-02-01T04:01:59.159Z,21.87
2023-02-01T04:03:01.722Z,19.28
2023-02-01T04:04:04.331Z,23.63
2023-02-01T04:05:06.980Z,21.45
2023-02-01T04:06:09.633Z,20.99
2023-02-01T04:07:12.194Z,23.37
2023-02-01T04:08:14.742Z,23.12
2023-02-01T04:09:17.305Z,20.73
2023-02-01T04:10:20.244Z,25.14
2023-02-01T04:11:23.026Z,27.09
2023-02-01T04:12:25.582Z,26.04
2023-02-01T04:13:28.140Z,31.92
2023-02-01T04:14:30.595Z,29.09
2023-02-01T04:15:33.158Z,30.01
2023-02-01T04:16:36.349Z,38.20
2023-02-01T04:17:38.880Z,37.45
2023-02-01T04:18:41.339Z,44.15
2023-02-01T04:19:43.901Z,36.81
2023-02-01T04:20:47.123Z,44.00
2023-02-01T04:21:49.685Z,37.24
2023-02-01T04:22:52.269Z,36.25
2023-02-01T04:23:54.824Z,39.39
2023-02-01T04:24:57.295Z,32.41
2023-02-01T04:25:59.892Z,32.77
2023-02-01T04:27:02.446Z,34.11
2023-02-01T04:28:05.010Z,35.56
2023-02-01T04:29:07.563Z,24.96
2023-02-01T04:30:10.439Z,26.05
2023-02-01T04:31:13.092Z,29.67
2023-02-01T04:32:15.762Z,26.66
2023-02-01T04:33:18.322Z,24.36
2023-02-01T04:34:20.782Z,31.65
2023-02-01T04:35:23.343Z,23.28
2023-02-01T04:36:26.352Z,24.01
2023-02-01T04:37:28.855Z,25.19
2023-02-01T04:38:31.415Z,25.73
2023-02-01T04:39:33.966Z,23.09
2023-02-01T04:40:36.836Z,27.69
2023-02-01T04:41:39.440Z,20.98
2023-02-01T04:42:41.990Z,20.87
2023-02-01T04:43:44.546Z,25.70
2023-02-01T04:44:47.116Z,24.08
2023-02-01T04:45:49.800Z,28.78
2023-02-01T04:46:52.885Z,25.82
2023-02-01T04:47:55.449Z,24.45
2023-02-01T04:48:58.011Z,27.11
2023-02-01T04:50:00.566Z,25.30
2023-02-01T04:51:03.122Z,28.42
2023-02-01T04:52:05.690Z,26.97
2023-02-01T04:53:08.261Z,30.94
2023-02-01T04:54:10.816Z,22.68
2023-02-01T04:55:13.393Z,27.09
2023-02-01T04:56:16.263Z,22.85
2023-02-01T04:57:18.823Z,29.41
2023-02-01T04:58:21.392Z,27.82
2023-02-01T04:59:23.954Z,25.20
2023-02-01T05:00:26.618Z,23.98
2023-02-01T05:01:29.272Z,22.41
2023-02-01T05:02:31.943Z,24.72
2023-02-01T05:03:34.507Z,23.07
2023-02-01T05:04:37.005Z,18.78
2023-02-01T05:05:39.643Z,22.50
2023-02-01T05:06:42.594Z,21.02
2023-02-01T05:07:45.159Z,22.35
2023-02-01T05:08:48.055Z,25.57
2023-02-01T05:09:50.615Z,19.76
2023-02-01T05:10:53.593Z,21.48
2023-02-01T05:11:56.170Z,28.06
2023-02-01T05:12:58.724Z,16.80
2023-02-01T05:14:02.543Z,22.32
2023-02-01T05:15:05.567Z,19.96
2023-02-01T05:16:08.906Z,19.11
2023-02-01T05:17:11.440Z,23.00
2023-02-01T05:18:14.037Z,18.55
2023-02-01T05:19:16.607Z,20.05
2023-02-01T05:20:19.484Z,18.00
2023-02-01T05:21:22.053Z,17.83
2023-02-01T05:22:24.596Z,19.75
2023-02-01T05:23:27.167Z,18.96
2023-02-01T05:24:29.746Z,24.32
2023-02-01T05:25:32.310Z,24.33
2023-02-01T05:26:35.194Z,23.77
2023-02-01T05:27:37.744Z,20.59
2023-02-01T05:28:40.340Z,23.89
2023-02-01T05:29:42.830Z,21.21
2023-02-01T05:30:45.688Z,30.62
2023-02-01T05:31:48.713Z,26.91
2023-02-01T05:32:51.531Z,19.73
2023-02-01T05:33:54.093Z,22.66
2023-02-01T05:34:56.656Z,23.41
2023-02-01T05:35:59.258Z,21.57
2023-02-01T05:37:01.907Z,23.05
2023-02-01T05:38:04.370Z,23.99
2023-02-01T05:39:06.943Z,23.94
2023-02-01T05:40:10.212Z,21.75
2023-02-01T05:41:12.796Z,21.43
2023-02-01T05:42:15.363Z,22.12
2023-02-01T05:43:17.928Z,30.05
2023-02-01T05:44:20.499Z,26.44
2023-02-01T05:45:23.050Z,21.14
2023-02-01T05:46:26.067Z,21.76
2023-02-01T05:47:28.880Z,23.31
2023-02-01T05:48:31.458Z,23.27
2023-02-01T05:49:34.040Z,28.15
2023-02-01T05:50:36.898Z,21.82
2023-02-01T05:51:39.462Z,25.43
2023-02-01T05:52:42.018Z,23.31
2023-02-01T05:53:44.623Z,24.77
2023-02-01T05:54:47.188Z,25.71
2023-02-01T05:55:49.745Z,26.25
2023-02-01T05:56:52.608Z,27.32
2023-02-01T05:57:55.176Z,27.40
2023-02-01T05:58:57.903Z,27.09
2023-02-01T06:00:00.879Z,25.28
2023-02-01T06:01:03.633Z,32.11
2023-02-01T06:02:06.199Z,28.21
2023-02-01T06:03:08.750Z,27.75
2023-02-01T06:04:11.356Z,28.97
2023-02-01T06:05:14.634Z,27.65
2023-02-01T06:06:17.577Z,28.54
2023-02-01T06:07:20.140Z,27.66
2023-02-01T06:08:22.701Z,33.49
2023-02-01T06:09:25.300Z,27.67
2023-02-01T06:10:28.267Z,24.62
2023-02-01T06:11:32.590Z,34.25
2023-02-01T06:12:35.196Z,29.82
2023-02-01T06:13:37.754Z,30.55
2023-02-01T06:14:40.351Z,28.33
2023-02-01T06:15:42.944Z,29.58
2023-02-01T06:16:45.819Z,32.14
2023-02-01T06:17:48.375Z,30.99
2023-02-01T06:18:50.939Z,30.85
2023-02-01T06:19:53.542Z,27.49
2023-02-01T06:20:56.415Z,31.92
2023-02-01T06:21:58.967Z,26.90
2023-02-01T06:23:01.539Z,28.85
2023-02-01T06:24:04.090Z,29.87
2023-02-01T06:25:06.715Z,25.39
2023-02-01T06:26:09.786Z,34.89
2023-02-01T06:27:12.257Z,30.35
2023-02-01T06:28:14.811Z,34.35
2023-02-01T06:29:17.374Z,34.41
2023-02-01T06:30:20.157Z,29.11
2023-02-01T06:31:22.783Z,34.60
2023-02-01T06:32:25.461Z,33.58
2023-02-01T06:33:28.032Z,30.57
2023-02-01T06:34:30.576Z,30.69
2023-02-01T06:35:33.130Z,29.31
2023-02-01T06:36:35.894Z,33.16
2023-02-01T06:37:38.457Z,34.73
2023-02-01T06:38:41.047Z,36.40
2023-02-01T06:39:43.598Z,30.30
2023-02-01T06:40:46.624Z,35.19
2023-02-01T06:41:49.175Z,30.54
2023-02-01T06:42:51.726Z,30.05
2023-02-01T06:43:54.289Z,27.35
2023-02-01T06:44:56.875Z,39.39
2023-02-01T06:45:59.428Z,35.99
2023-02-01T06:47:02.307Z,34.43
2023-02-01T06:48:04.836Z,30.52
2023-02-01T06:49:07.404Z,31.20
2023-02-01T06:50:10.571Z,31.80
2023-02-01T06:51:13.146Z,32.81
2023-02-01T06:52:15.703Z,32.29
2023-02-01T06:53:18.260Z,30.65
2023-02-01T06:54:20.812Z,30.01
2023-02-01T06:55:23.567Z,28.81
2023-02-01T06:56:26.227Z,34.51
2023-02-01T06:57:28.888Z,29.60
2023-02-01T06:58:31.466Z,31.89
2023-02-01T06:59:34.007Z,28.31
2023-02-01T07:00:36.701Z,30.82
2023-02-01T07:01:39.303Z,33.49
2023-02-01T07:02:42.041Z,34.54
2023-02-01T07:03:44.593Z,27.41
2023-02-01T07:04:47.153Z,37.75
2023-02-01T07:05:49.707Z,30.18
2023-02-01T07:06:52.504Z,32.82
2023-02-01T07:07:55.074Z,31.86
2023-02-01T07:08:57.602Z,29.05
2023-02-01T07:10:00.153Z,30.93
2023-02-01T07:11:02.717Z,40.89
2023-02-01T07:12:05.274Z,31.10
2023-02-01T07:13:07.844Z,34.31
2023-02-01T07:14:10.408Z,32.00
2023-02-01T07:15:12.974Z,35.38
2023-02-01T07:16:16.122Z,29.46
2023-02-01T07:17:18.737Z,31.30
2023-02-01T07:18:21.323Z,30.97
2023-02-01T07:19:23.921Z,38.05
2023-02-01T07:20:26.766Z,35.29
2023-02-01T07:21:29.325Z,39.69
2023-02-01T07:22:31.958Z,42.41
2023-02-01T07:23:34.503Z,36.11
2023-02-01T07:24:37.065Z,36.49
2023-02-01T07:25:39.615Z,31.73
2023-02-01T07:26:42.895Z,39.47
2023-02-01T07:27:45.721Z,40.50
2023-02-01T07:28:48.284Z,39.99
2023-02-01T07:29:50.864Z,43.84
2023-02-01T07:30:53.751Z,37.84
2023-02-01T07:31:56.308Z,32.19
2023-02-01T07:32:58.914Z,36.01
2023-02-01T07:34:01.719Z,32.12
2023-02-01T07:35:04.325Z,28.74
2023-02-01T07:36:07.748Z,37.96
2023-02-01T07:37:10.374Z,35.72
2023-02-01T07:38:12.923Z,31.60
2023-02-01T07:39:15.388Z,35.57
2023-02-01T07:40:18.485Z,35.81
2023-02-01T07:41:21.041Z,36.51
2023-02-01T07:42:23.512Z,34.66
2023-02-01T07:43:26.066Z,35.51
2023-02-01T07:44:28.626Z,37.26
2023-02-01T07:45:31.222Z,32.73
2023-02-01T07:46:34.034Z,42.39
2023-02-01T07:47:36.565Z,36.01
2023-02-01T07:48:39.020Z,31.76
2023-02-01T07:49:41.540Z,33.46
2023-02-01T07:50:44.521Z,35.43
2023-02-01T07:51:46.958Z,33.91
2023-02-01T07:52:49.401Z,38.00
2023-02-01T07:53:51.930Z,35.93
2023-02-01T07:54:54.365Z,35.68
2023-02-01T07:55:56.817Z,41.91
2023-02-01T07:56:59.553Z,35.68
2023-02-01T07:58:01.985Z,30.67
2023-02-01T07:59:04.516Z,32.85
2023-02-01T08:00:07.453Z,35.56
2023-02-01T08:01:10.087Z,32.17
2023-02-01T08:02:12.674Z,31.60
2023-02-01T08:03:17.344Z,38.95
2023-02-01T08:04:19.530Z,33.82
2023-02-01T08:05:22.069Z,36.74
2023-02-01T08:06:24.839Z,33.61
2023-02-01T08:07:27.384Z,31.92
2023-02-01T08:08:29.913Z,34.73
2023-02-01T08:09:32.346Z,32.90
2023-02-01T08:10:35.181Z,37.52
2023-02-01T08:11:37.654Z,38.69
2023-02-01T08:12:40.091Z,37.88
2023-02-01T08:13:42.543Z,33.55
2023-02-01T08:14:45.069Z,35.22
2023-02-01T08:15:47.505Z,34.24
2023-02-01T08:16:50.332Z,33.29
2023-02-01T08:17:52.891Z,39.61
2023-02-01T08:18:55.436Z,35.04
2023-02-01T08:19:57.966Z,33.75
2023-02-01T08:21:00.907Z,40.28
2023-02-01T08:22:03.352Z,27.58
2023-02-01T08:23:05.813Z,33.09
2023-02-01T08:24:08.254Z,35.20
2023-02-01T08:25:10.689Z,31.11
2023-02-01T08:26:13.626Z,35.31
2023-02-01T08:27:16.185Z,33.85
2023-02-01T08:28:18.625Z,34.45
2023-02-01T08:29:21.153Z,36.01
2023-02-01T08:30:24.324Z,30.10
2023-02-01T08:31:27.060Z,32.98
2023-02-01T08:32:29.674Z,34.45
2023-02-01T08:33:32.108Z,30.09
2023-02-01T08:34:35.859Z,38.21
2023-02-01T08:35:43.928Z,34.92
2023-02-01T08:36:43.154Z,38.28
2023-02-01T08:37:45.607Z,37.91
2023-02-01T08:38:48.194Z,38.40
2023-02-01T08:39:50.631Z,34.79
2023-02-01T08:40:53.779Z,34.52
2023-02-01T08:41:56.324Z,40.56
2023-02-01T08:42:58.767Z,38.28
2023-02-01T08:44:01.305Z,35.99
2023-02-01T08:45:03.755Z,38.97
2023-02-01T08:46:06.529Z,37.20
2023-02-01T08:47:09.251Z,36.80
2023-02-01T08:48:11.797Z,37.55
2023-02-01T08:49:14.343Z,37.39
2023-02-01T08:50:16.942Z,37.27
2023-02-01T08:51:19.484Z,36.07
2023-02-01T08:52:22.038Z,37.05
2023-02-01T08:53:24.580Z,35.93
2023-02-01T08:54:27.028Z,35.61
2023-02-01T08:55:29.475Z,35.96
2023-02-01T08:56:32.805Z,33.10
2023-02-01T08:57:35.648Z,33.01
2023-02-01T08:58:38.199Z,35.31
2023-02-01T08:59:40.748Z,29.29
2023-02-01T09:00:43.601Z,38.14
2023-02-01T09:01:46.165Z,35.31
2023-02-01T09:02:48.729Z,33.60
2023-02-01T09:03:51.330Z,33.49
2023-02-01T09:04:54.536Z,34.15
2023-02-01T09:05:57.296Z,33.21
2023-02-01T09:07:00.204Z,31.87
2023-02-01T09:08:02.659Z,35.36
2023-02-01T09:09:05.208Z,36.25
2023-02-01T09:10:09.189Z,39.44
2023-02-01T09:11:11.736Z,43.11
2023-02-01T09:12:14.296Z,37.66
2023-02-01T09:13:17.181Z,41.66
2023-02-01T09:14:19.824Z,34.09
2023-02-01T09:15:22.312Z,31.22
2023-02-01T09:16:25.200Z,35.66
2023-02-01T09:18:32.399Z,30.37
2023-02-01T09:19:34.950Z,35.19
2023-02-01T09:20:37.997Z,33.11
2023-02-01T09:21:40.547Z,33.91
2023-02-01T09:22:43.436Z,31.37
2023-02-01T09:23:46.053Z,35.49
2023-02-01T09:24:48.714Z,33.93
2023-02-01T09:25:51.398Z,39.36
2023-02-01T09:26:54.051Z,31.71
2023-02-01T09:27:56.567Z,35.50
2023-02-01T09:28:59.161Z,34.44
2023-02-01T09:30:01.717Z,33.71
2023-02-01T09:31:04.390Z,37.75
2023-02-01T09:32:07.114Z,33.04
2023-02-01T09:33:10.073Z,36.81
2023-02-01T09:34:12.655Z,32.59
2023-02-01T09:35:15.108Z,35.99
2023-02-01T09:36:17.760Z,35.82
2023-02-01T09:37:20.307Z,34.97
2023-02-01T09:38:22.866Z,37.93
2023-02-01T09:39:25.478Z,35.36
2023-02-01T09:40:28.417Z,35.97
2023-02-01T09:41:30.884Z,32.55
2023-02-01T09:42:33.433Z,38.75
2023-02-01T09:43:35.975Z,35.00
2023-02-01T09:44:44.384Z,37.43
2023-02-01T09:45:42.823Z,34.83
2023-02-01T09:46:45.683Z,34.13
2023-02-01T09:47:48.258Z,36.84
2023-02-01T09:48:50.704Z,33.49
2023-02-01T09:49:53.291Z,39.55
2023-02-01T09:50:56.046Z,35.04
2023-02-01T09:51:58.588Z,38.43
2023-02-01T09:53:01.035Z,37.03
2023-02-01T09:54:03.582Z,35.11
2023-02-01T09:55:06.196Z,35.52
2023-02-01T09:56:09.027Z,34.14
2023-02-01T09:57:11.564Z,33.48
2023-02-01T09:58:14.054Z,40.95
2023-02-01T09:59:16.590Z,40.96
2023-02-01T10:00:19.791Z,37.73
2023-02-01T10:01:22.265Z,38.77
2023-02-01T10:02:24.788Z,36.95
2023-02-01T10:03:27.399Z,35.32
2023-02-01T10:04:30.099Z,39.73
2023-02-01T10:05:32.564Z,35.04
2023-02-01T10:06:35.424Z,34.56
2023-02-01T10:07:37.968Z,31.98
2023-02-01T10:08:40.515Z,41.91
2023-02-01T10:09:43.069Z,39.55
2023-02-01T10:10:45.869Z,39.06
2023-02-01T10:11:48.950Z,38.99
2023-02-01T10:12:51.469Z,37.38
2023-02-01T10:13:54.019Z,39.05
2023-02-01T10:14:56.592Z,38.07
2023-02-01T10:15:59.266Z,39.29
2023-02-01T10:17:02.186Z,39.09
2023-02-01T10:18:04.786Z,35.41
2023-02-01T10:19:07.332Z,33.85
2023-02-01T10:20:11.102Z,41.46
2023-02-01T10:21:13.685Z,43.55
2023-02-01T10:22:16.139Z,33.31
2023-02-01T10:23:32.976Z,37.43
2023-02-01T10:24:23.048Z,37.40
2023-02-01T10:25:25.495Z,36.66
2023-02-01T10:26:28.304Z,35.83
2023-02-01T10:27:31.619Z,35.72
2023-02-01T10:28:34.175Z,33.71
2023-02-01T10:29:36.706Z,33.18
2023-02-01T10:30:39.595Z,36.58
2023-02-01T10:31:42.312Z,35.26
2023-02-01T10:32:44.878Z,38.50
2023-02-01T10:33:47.431Z,31.93
2023-02-01T10:34:49.971Z,37.59
2023-02-01T10:35:52.526Z,41.23
2023-02-01T10:36:55.341Z,37.18
2023-02-01T10:37:58.975Z,33.67
2023-02-01T10:39:01.423Z,38.63
2023-02-01T10:40:04.260Z,36.53
2023-02-01T10:41:06.787Z,36.05
2023-02-01T10:42:11.043Z,30.51
2023-02-01T10:43:13.583Z,35.50
2023-02-01T10:44:16.216Z,31.71
2023-02-01T10:45:18.728Z,37.07
2023-02-01T10:46:21.459Z,32.61
2023-02-01T10:47:24.494Z,32.39
2023-02-01T10:48:27.104Z,37.36
2023-02-01T10:49:29.649Z,38.33
2023-02-01T10:50:32.842Z,41.41
2023-02-01T10:51:35.286Z,35.08
2023-02-01T10:52:37.752Z,35.87
2023-02-01T10:53:40.198Z,37.61
2023-02-01T10:54:42.734Z,38.77
2023-02-01T10:55:45.269Z,38.68
2023-02-01T10:56:48.119Z,36.63
2023-02-01T10:57:50.664Z,36.90
2023-02-01T10:58:53.105Z,40.15
2023-02-01T10:59:55.537Z,37.74
2023-02-01T11:00:58.185Z,38.27
2023-02-01T11:02:00.918Z,37.17
2023-02-01T11:03:03.706Z,39.24
2023-02-01T11:04:06.630Z,31.08
2023-02-01T11:05:09.171Z,35.02
2023-02-01T11:06:12.253Z,29.91
2023-02-01T11:07:14.890Z,33.79
2023-02-01T11:08:17.471Z,36.49
2023-02-01T11:09:20.030Z,31.57
2023-02-01T11:10:23.233Z,42.10
2023-02-01T11:11:26.151Z,32.28
2023-02-01T11:12:28.693Z,32.57
2023-02-01T11:13:31.247Z,36.42
2023-02-01T11:14:33.836Z,36.84
2023-02-01T11:15:36.380Z,36.21
2023-02-01T11:16:39.232Z,36.39
2023-02-01T11:17:41.780Z,36.67
2023-02-01T11:18:44.340Z,37.49
2023-02-01T11:19:46.939Z,40.07
2023-02-01T11:20:49.976Z,32.86
2023-02-01T11:21:52.510Z,35.25
2023-02-01T11:22:55.066Z,36.29
2023-02-01T11:23:57.612Z,36.00
2023-02-01T11:25:00.100Z,33.19
2023-02-01T11:26:02.922Z,36.51
2023-02-01T11:27:07.026Z,34.05
2023-02-01T11:28:09.847Z,38.40
2023-02-01T11:29:12.291Z,37.43
2023-02-01T11:30:15.146Z,33.86
2023-02-01T11:31:17.702Z,36.65
2023-02-01T11:32:20.259Z,32.74
2023-02-01T11:33:22.881Z,32.21
2023-02-01T11:34:25.399Z,27.90
2023-02-01T11:35:27.946Z,38.23
2023-02-01T11:36:30.794Z,33.87
2023-02-01T11:37:33.240Z,33.87
2023-02-01T11:38:35.794Z,32.64
2023-02-01T11:39:38.337Z,35.29
2023-02-01T11:40:41.506Z,33.02
2023-02-01T11:41:44.074Z,36.42
2023-02-01T11:42:46.623Z,34.07
2023-02-01T11:43:49.169Z,34.47
2023-02-01T11:44:51.728Z,33.65
2023-02-01T11:45:54.220Z,32.43
2023-02-01T11:46:57.195Z,29.65
2023-02-01T11:47:59.736Z,29.11
2023-02-01T11:49:02.288Z,32.89
2023-02-01T11:50:04.941Z,32.08
2023-02-01T11:51:07.532Z,29.28
2023-02-01T11:52:10.082Z,33.97
2023-02-01T11:53:12.626Z,28.77
2023-02-01T11:54:15.180Z,31.47
2023-02-01T11:55:17.734Z,31.99
2023-02-01T11:56:20.640Z,30.19
2023-02-01T11:57:23.189Z,32.89
2023-02-01T11:58:25.737Z,32.25
2023-02-01T11:59:28.288Z,29.47
2023-02-01T12:00:31.241Z,34.05
2023-02-01T12:01:33.825Z,31.55
2023-02-01T12:02:37.060Z,35.47
2023-02-01T12:03:39.524Z,31.24
2023-02-01T12:04:42.103Z,33.95
2023-02-01T12:05:44.681Z,33.97
2023-02-01T12:06:47.652Z,37.29
2023-02-01T12:07:50.203Z,34.19
2023-02-01T12:08:52.651Z,34.15
2023-02-01T12:09:55.129Z,38.37
2023-02-01T12:10:57.952Z,34.34
2023-02-01T12:12:00.404Z,39.68
2023-02-01T12:13:02.960Z,38.71
2023-02-01T12:14:05.501Z,34.55
2023-02-01T12:15:08.060Z,33.67
2023-02-01T12:16:11.050Z,33.35
2023-02-01T12:17:13.611Z,33.38
2023-02-01T12:18:16.159Z,34.11
2023-02-01T12:19:18.606Z,37.48
2023-02-01T12:20:22.253Z,40.12
2023-02-01T12:21:25.032Z,39.03
2023-02-01T12:22:27.588Z,37.44
2023-02-01T12:23:30.136Z,36.76
2023-02-01T12:24:32.692Z,32.61
2023-02-01T12:25:35.248Z,37.77
2023-02-01T12:26:38.015Z,33.40
2023-02-01T12:27:40.572Z,33.47
2023-02-01T12:28:43.120Z,32.34
2023-02-01T12:29:45.806Z,33.11
2023-02-01T12:30:48.477Z,34.55
2023-02-01T12:31:51.022Z,34.01
2023-02-01T12:32:53.756Z,37.15
2023-02-01T12:33:56.212Z,35.28
2023-02-01T12:34:58.759Z,36.57
2023-02-01T12:36:01.320Z,33.03
2023-02-01T12:37:03.873Z,32.39
2023-02-01T12:38:06.466Z,34.21
2023-02-01T12:39:08.986Z,33.01
2023-02-01T12:40:11.745Z,32.69
2023-02-01T12:41:14.289Z,29.54
2023-02-01T12:42:16.840Z,34.75
2023-02-01T12:43:19.425Z,36.04
2023-02-01T12:44:21.979Z,33.71
2023-02-01T12:45:24.529Z,36.11
2023-02-01T12:46:27.563Z,37.48
2023-02-01T12:47:30.123Z,40.77
2023-02-01T12:48:32.716Z,37.03
2023-02-01T12:49:35.266Z,35.25
2023-02-01T12:50:37.919Z,33.95
2023-02-01T12:51:40.477Z,34.10
2023-02-01T12:52:42.925Z,37.28
2023-02-01T12:53:46.964Z,37.33
2023-02-01T12:54:49.746Z,31.29
2023-02-01T12:55:52.310Z,38.52
2023-02-01T12:56:55.155Z,34.27
2023-02-01T12:57:57.704Z,34.82
2023-02-01T12:59:00.258Z,38.67
2023-02-01T13:00:03.107Z,35.33
2023-02-01T13:01:05.694Z,34.47
2023-02-01T13:02:08.389Z,36.94
2023-02-01T13:03:10.899Z,35.97
2023-02-01T13:04:13.487Z,35.49
2023-02-01T13:05:16.032Z,39.81
2023-02-01T13:06:18.789Z,38.69
2023-02-01T13:07:21.347Z,38.50
2023-02-01T13:08:23.896Z,38.34
2023-02-01T13:09:26.494Z,44.74
2023-02-01T13:10:29.238Z,36.62
2023-02-01T13:11:31.788Z,37.71
2023-02-01T13:12:34.346Z,42.07
2023-02-01T13:13:36.882Z,42.09
2023-02-01T13:14:39.455Z,39.41
2023-02-01T13:15:41.904Z,32.61
2023-02-01T13:16:44.634Z,36.76
2023-02-01T13:17:47.333Z,41.14
2023-02-01T13:18:49.762Z,38.25
2023-02-01T13:19:52.199Z,38.79
2023-02-01T13:20:54.940Z,39.01
2023-02-01T13:21:57.396Z,34.66
2023-02-01T13:22:59.944Z,40.14
2023-02-01T13:24:02.467Z,33.67
2023-02-01T13:25:04.993Z,37.17
2023-02-01T13:26:08.660Z,35.01
2023-02-01T13:27:11.236Z,34.97
2023-02-01T13:28:13.756Z,35.43